AZU2304 SBRJ-SBRF
Flight info
| Callsign | AZU2304 |
|---|---|
| Flight time | 2h 29m |
| Altitude | 37000 |
| Route | IMBAP UZ42 ANBEX |
| Aircraft | A320/M-SDE3FGHIRWY/LB1 |
Departure
| Time | 2026-05-01 09:28 |
|---|---|
| Airport | Santos Dumont Airport (SBRJ) |
Arrival
| Time | 2026-05-01 11:58 |
|---|---|
| Airport | Recife/Guararapes - Gilberto Freyre International Airport (SBRF) |
| Time | Latitude | Longitude | Altitude | Speed | Heading |
|---|---|---|---|---|---|
| 2026-05-01 08:58 | -22.91169 | -43.16586 | 24 ft | 0 kts | 266° |
| 2026-05-01 09:20 | -22.91169 | -43.16583 | 22 ft | 2 kts | 266° |
| 2026-05-01 09:20 | -22.91162 | -43.16542 | 25 ft | 3 kts | 244° |
| 2026-05-01 09:21 | -22.91138 | -43.16518 | 23 ft | 1 kts | 177° |
| 2026-05-01 09:21 | -22.91133 | -43.16518 | 23 ft | 0 kts | 177° |
| 2026-05-01 09:24 | -22.91173 | -43.16516 | 22 ft | 15 kts | 176° |
| 2026-05-01 09:24 | -22.91390 | -43.16500 | 22 ft | 17 kts | 169° |
| 2026-05-01 09:25 | -22.91544 | -43.16355 | 20 ft | 17 kts | 137° |
| 2026-05-01 09:25 | -22.91618 | -43.16283 | 20 ft | 4 kts | 142° |
| 2026-05-01 09:26 | -22.91646 | -43.16251 | 20 ft | 4 kts | 99° |
| 2026-05-01 09:26 | -22.91629 | -43.16246 | 20 ft | 0 kts | 357° |
| 2026-05-01 09:27 | -22.91451 | -43.16258 | 20 ft | 69 kts | 356° |
| 2026-05-01 09:27 | -22.90701 | -43.16304 | 29 ft | 144 kts | 357° |
| 2026-05-01 09:28 | -22.89622 | -43.16351 | 571 ft | 156 kts | 360° |
| 2026-05-01 09:28 | -22.88603 | -43.16019 | 1339 ft | 157 kts | 39° |
| 2026-05-01 09:28 | -22.87999 | -43.15057 | 2047 ft | 156 kts | 75° |
| 2026-05-01 09:28 | -22.87964 | -43.13820 | 2351 ft | 174 kts | 94° |
| 2026-05-01 09:29 | -22.88145 | -43.10853 | 2971 ft | 218 kts | 94° |
| 2026-05-01 09:29 | -22.88245 | -43.09230 | 3713 ft | 219 kts | 94° |
| 2026-05-01 09:30 | -22.88441 | -43.05885 | 4930 ft | 225 kts | 94° |
| 2026-05-01 09:30 | -22.88504 | -43.04192 | 5031 ft | 225 kts | 87° |
| 2026-05-01 09:30 | -22.88263 | -43.00808 | 5045 ft | 225 kts | 86° |
| 2026-05-01 09:31 | -22.88141 | -42.99113 | 5048 ft | 225 kts | 86° |
| 2026-05-01 09:31 | -22.88020 | -42.97419 | 5047 ft | 225 kts | 86° |
| 2026-05-01 09:31 | -22.87776 | -42.94034 | 5047 ft | 225 kts | 86° |
| 2026-05-01 09:32 | -22.87654 | -42.92359 | 5049 ft | 225 kts | 86° |
| 2026-05-01 09:32 | -22.87409 | -42.88958 | 5250 ft | 230 kts | 86° |
| 2026-05-01 09:32 | -22.87286 | -42.87241 | 6101 ft | 229 kts | 86° |
| 2026-05-01 09:33 | -22.86980 | -42.85547 | 6814 ft | 232 kts | 64° |
| 2026-05-01 09:33 | -22.85929 | -42.84221 | 7452 ft | 238 kts | 32° |
| 2026-05-01 09:33 | -22.82414 | -42.83937 | 8153 ft | 282 kts | 351° |
| 2026-05-01 09:34 | -22.80452 | -42.84278 | 8846 ft | 288 kts | 351° |
| 2026-05-01 09:34 | -22.78485 | -42.84624 | 9623 ft | 292 kts | 351° |
| 2026-05-01 09:34 | -22.74336 | -42.85318 | 10624 ft | 319 kts | 352° |
| 2026-05-01 09:35 | -22.72843 | -42.85555 | 10777 ft | 333 kts | 352° |
| 2026-05-01 09:35 | -22.67361 | -42.86424 | 12140 ft | 348 kts | 351° |
| 2026-05-01 09:35 | -22.64948 | -42.86821 | 12779 ft | 352 kts | 351° |
| 2026-05-01 09:36 | -22.63334 | -42.87089 | 13202 ft | 354 kts | 350° |
| 2026-05-01 09:36 | -22.60877 | -42.87503 | 13819 ft | 358 kts | 350° |
| 2026-05-01 09:36 | -22.58394 | -42.87923 | 14374 ft | 362 kts | 350° |
| 2026-05-01 09:36 | -22.55889 | -42.88344 | 14909 ft | 365 kts | 350° |
| 2026-05-01 09:37 | -22.53400 | -42.88761 | 15465 ft | 367 kts | 349° |
| 2026-05-01 09:37 | -22.48311 | -42.89610 | 16570 ft | 372 kts | 349° |
| 2026-05-01 09:37 | -22.45739 | -42.90037 | 17049 ft | 375 kts | 349° |
| 2026-05-01 09:38 | -22.40530 | -42.90893 | 18124 ft | 381 kts | 349° |
| 2026-05-01 09:38 | -22.37900 | -42.91323 | 18613 ft | 384 kts | 349° |
| 2026-05-01 09:38 | -22.35277 | -42.91756 | 19061 ft | 387 kts | 349° |
| 2026-05-01 09:39 | -22.29910 | -42.92648 | 19990 ft | 393 kts | 349° |
| 2026-05-01 09:39 | -22.27197 | -42.93100 | 20447 ft | 396 kts | 349° |
| 2026-05-01 09:39 | -22.24465 | -42.93554 | 20902 ft | 398 kts | 349° |
| 2026-05-01 09:40 | -22.21714 | -42.94007 | 21375 ft | 401 kts | 349° |
| 2026-05-01 09:40 | -22.16090 | -42.93984 | 22284 ft | 412 kts | 10° |
| 2026-05-01 09:40 | -22.13376 | -42.93037 | 22730 ft | 418 kts | 22° |
| 2026-05-01 09:41 | -22.10829 | -42.91478 | 23171 ft | 423 kts | 31° |
| 2026-05-01 09:41 | -22.05841 | -42.88004 | 23986 ft | 429 kts | 31° |
| 2026-05-01 09:41 | -22.03321 | -42.86258 | 24351 ft | 431 kts | 31° |
| 2026-05-01 09:42 | -22.00786 | -42.84505 | 24703 ft | 434 kts | 31° |
| 2026-05-01 09:42 | -21.98268 | -42.82764 | 25050 ft | 436 kts | 31° |
| 2026-05-01 09:42 | -21.93125 | -42.79217 | 25725 ft | 441 kts | 31° |
| 2026-05-01 09:43 | -21.87930 | -42.75633 | 26381 ft | 446 kts | 31° |
| 2026-05-01 09:43 | -21.85313 | -42.73823 | 26693 ft | 448 kts | 31° |
| 2026-05-01 09:43 | -21.82684 | -42.72008 | 27010 ft | 450 kts | 31° |
| 2026-05-01 09:44 | -21.77380 | -42.68354 | 27628 ft | 454 kts | 31° |
| 2026-05-01 09:44 | -21.74737 | -42.66530 | 27931 ft | 457 kts | 31° |
| 2026-05-01 09:44 | -21.72052 | -42.64678 | 28227 ft | 459 kts | 31° |
| 2026-05-01 09:45 | -21.69353 | -42.62821 | 28533 ft | 461 kts | 31° |
| 2026-05-01 09:45 | -21.63912 | -42.59081 | 29104 ft | 466 kts | 30° |
| 2026-05-01 09:45 | -21.61136 | -42.57260 | 29386 ft | 468 kts | 28° |
| 2026-05-01 09:46 | -21.58290 | -42.55544 | 29663 ft | 469 kts | 26° |
| 2026-05-01 09:46 | -21.55426 | -42.53924 | 29930 ft | 471 kts | 25° |
| 2026-05-01 09:46 | -21.52501 | -42.52315 | 30184 ft | 473 kts | 25° |
| 2026-05-01 09:46 | -21.49559 | -42.50698 | 30409 ft | 475 kts | 25° |
| 2026-05-01 09:47 | -21.46604 | -42.49051 | 30628 ft | 477 kts | 25° |
| 2026-05-01 09:47 | -21.43670 | -42.47388 | 30862 ft | 478 kts | 26° |
| 2026-05-01 09:47 | -21.40734 | -42.45698 | 31077 ft | 480 kts | 26° |
| 2026-05-01 09:47 | -21.37826 | -42.44013 | 31283 ft | 481 kts | 26° |
| 2026-05-01 09:48 | -21.34871 | -42.42299 | 31484 ft | 483 kts | 26° |
| 2026-05-01 09:48 | -21.31916 | -42.40587 | 31765 ft | 482 kts | 26° |
| 2026-05-01 09:48 | -21.28966 | -42.38881 | 32032 ft | 481 kts | 26° |
| 2026-05-01 09:48 | -21.26009 | -42.37180 | 32305 ft | 481 kts | 26° |
| 2026-05-01 09:49 | -21.23064 | -42.35492 | 32606 ft | 480 kts | 26° |
| 2026-05-01 09:49 | -21.20122 | -42.33807 | 32918 ft | 479 kts | 26° |
| 2026-05-01 09:49 | -21.17223 | -42.32146 | 33205 ft | 478 kts | 26° |
| 2026-05-01 09:49 | -21.14286 | -42.30462 | 33498 ft | 478 kts | 26° |
| 2026-05-01 09:50 | -21.11359 | -42.28782 | 33799 ft | 477 kts | 26° |
| 2026-05-01 09:50 | -21.08435 | -42.27102 | 34096 ft | 476 kts | 26° |
| 2026-05-01 09:50 | -21.05498 | -42.25418 | 34363 ft | 476 kts | 26° |
| 2026-05-01 09:50 | -21.02581 | -42.23754 | 34633 ft | 475 kts | 26° |
| 2026-05-01 09:51 | -20.99695 | -42.22110 | 34881 ft | 475 kts | 26° |
| 2026-05-01 09:51 | -20.96774 | -42.20446 | 35131 ft | 474 kts | 26° |
| 2026-05-01 09:51 | -20.93864 | -42.18785 | 35369 ft | 474 kts | 26° |
| 2026-05-01 09:51 | -20.90951 | -42.17119 | 35587 ft | 474 kts | 26° |
| 2026-05-01 09:52 | -20.88044 | -42.15455 | 35812 ft | 474 kts | 26° |
| 2026-05-01 09:52 | -20.85132 | -42.13787 | 36010 ft | 474 kts | 26° |
| 2026-05-01 09:52 | -20.82220 | -42.12124 | 36230 ft | 473 kts | 26° |
| 2026-05-01 09:52 | -20.79309 | -42.10463 | 36449 ft | 473 kts | 26° |
| 2026-05-01 09:53 | -20.76441 | -42.08828 | 36650 ft | 472 kts | 26° |
| 2026-05-01 09:53 | -20.73537 | -42.07176 | 36851 ft | 472 kts | 26° |
| 2026-05-01 09:53 | -20.70636 | -42.05526 | 37058 ft | 471 kts | 26° |
| 2026-05-01 09:53 | -20.67736 | -42.03874 | 37183 ft | 471 kts | 26° |
| 2026-05-01 09:54 | -20.61986 | -42.00608 | 37204 ft | 469 kts | 26° |
| 2026-05-01 09:54 | -20.56261 | -41.97258 | 37212 ft | 468 kts | 27° |
| 2026-05-01 09:55 | -20.50581 | -41.93831 | 37212 ft | 468 kts | 28° |
| 2026-05-01 09:55 | -20.44941 | -41.90420 | 37211 ft | 468 kts | 27° |
| 2026-05-01 09:56 | -20.39253 | -41.87023 | 37209 ft | 468 kts | 28° |
| 2026-05-01 09:56 | -20.33557 | -41.83640 | 37215 ft | 467 kts | 27° |
| 2026-05-01 09:57 | -20.27902 | -41.80289 | 37208 ft | 467 kts | 27° |
| 2026-05-01 09:57 | -20.22221 | -41.76913 | 37206 ft | 467 kts | 27° |
| 2026-05-01 09:58 | -20.16553 | -41.73542 | 37205 ft | 467 kts | 28° |
| 2026-05-01 09:58 | -20.10878 | -41.70168 | 37202 ft | 466 kts | 28° |
| 2026-05-01 09:59 | -20.05247 | -41.66831 | 37202 ft | 466 kts | 28° |
| 2026-05-01 09:59 | -19.99560 | -41.63470 | 37203 ft | 466 kts | 28° |
| 2026-05-01 10:00 | -19.93886 | -41.60115 | 37197 ft | 466 kts | 28° |
| 2026-05-01 10:00 | -19.88247 | -41.56784 | 37203 ft | 466 kts | 28° |
| 2026-05-01 10:01 | -19.82581 | -41.53433 | 37199 ft | 465 kts | 28° |
| 2026-05-01 10:01 | -19.76923 | -41.50086 | 37183 ft | 465 kts | 28° |
| 2026-05-01 10:02 | -19.71261 | -41.46743 | 37191 ft | 465 kts | 28° |
| 2026-05-01 10:02 | -19.65640 | -41.43438 | 37185 ft | 464 kts | 28° |
| 2026-05-01 10:03 | -19.59987 | -41.40120 | 37184 ft | 464 kts | 28° |
| 2026-05-01 10:03 | -19.54332 | -41.36793 | 37188 ft | 464 kts | 28° |
| 2026-05-01 10:04 | -19.48684 | -41.33463 | 37182 ft | 463 kts | 28° |
| 2026-05-01 10:04 | -19.43080 | -41.30154 | 37179 ft | 463 kts | 28° |
| 2026-05-01 10:05 | -19.37436 | -41.26839 | 37176 ft | 464 kts | 28° |
| 2026-05-01 10:05 | -19.31786 | -41.23539 | 37168 ft | 463 kts | 28° |
| 2026-05-01 10:06 | -19.26143 | -41.20237 | 37179 ft | 463 kts | 28° |
| 2026-05-01 10:06 | -19.20511 | -41.16934 | 37174 ft | 462 kts | 28° |
| 2026-05-01 10:07 | -19.14903 | -41.13649 | 37186 ft | 462 kts | 28° |
| 2026-05-01 10:07 | -19.09268 | -41.10362 | 37182 ft | 462 kts | 28° |
| 2026-05-01 10:08 | -19.00831 | -41.05435 | 37182 ft | 461 kts | 28° |
| 2026-05-01 10:09 | -18.95209 | -41.02156 | 37180 ft | 461 kts | 28° |
| 2026-05-01 10:09 | -18.89580 | -40.98869 | 37178 ft | 462 kts | 28° |
| 2026-05-01 10:10 | -18.83992 | -40.95607 | 37182 ft | 461 kts | 29° |
| 2026-05-01 10:10 | -18.75555 | -40.90696 | 37178 ft | 461 kts | 28° |
| 2026-05-01 10:11 | -18.69922 | -40.87435 | 37177 ft | 461 kts | 28° |
| 2026-05-01 10:11 | -18.64344 | -40.84194 | 37173 ft | 460 kts | 29° |
| 2026-05-01 10:12 | -18.59668 | -40.81470 | 37161 ft | 461 kts | 29° |
| 2026-05-01 10:13 | -18.50288 | -40.76026 | 37169 ft | 461 kts | 29° |
| 2026-05-01 10:13 | -18.44688 | -40.72772 | 37169 ft | 461 kts | 29° |
| 2026-05-01 10:14 | -18.36253 | -40.67894 | 37166 ft | 460 kts | 29° |
| 2026-05-01 10:14 | -18.30639 | -40.64642 | 37167 ft | 460 kts | 29° |
| 2026-05-01 10:15 | -18.25062 | -40.61421 | 37158 ft | 460 kts | 29° |
| 2026-05-01 10:15 | -18.19435 | -40.58176 | 37166 ft | 460 kts | 29° |
| 2026-05-01 10:16 | -18.13820 | -40.54939 | 37163 ft | 459 kts | 29° |
| 2026-05-01 10:17 | -18.05408 | -40.50090 | 37168 ft | 459 kts | 29° |
| 2026-05-01 10:17 | -17.97008 | -40.45254 | 37162 ft | 459 kts | 29° |
| 2026-05-01 10:18 | -17.88632 | -40.40441 | 37166 ft | 459 kts | 29° |
| 2026-05-01 10:19 | -17.83024 | -40.37223 | 37161 ft | 459 kts | 29° |
| 2026-05-01 10:19 | -17.77420 | -40.34000 | 37160 ft | 458 kts | 29° |
| 2026-05-01 10:20 | -17.68989 | -40.29307 | 37162 ft | 458 kts | 28° |
| 2026-05-01 10:20 | -17.63329 | -40.26224 | 37158 ft | 458 kts | 28° |
| 2026-05-01 10:21 | -17.54852 | -40.21570 | 37162 ft | 458 kts | 28° |
| 2026-05-01 10:22 | -17.46409 | -40.16923 | 37154 ft | 458 kts | 29° |
| 2026-05-01 10:23 | -17.37923 | -40.12257 | 37156 ft | 459 kts | 29° |
| 2026-05-01 10:23 | -17.30385 | -40.08112 | 37152 ft | 459 kts | 29° |
| 2026-05-01 10:24 | -17.19075 | -40.01923 | 37162 ft | 459 kts | 28° |
| 2026-05-01 10:25 | -17.07745 | -39.95711 | 37160 ft | 459 kts | 29° |
| 2026-05-01 10:26 | -17.02128 | -39.92638 | 37159 ft | 459 kts | 28° |
| 2026-05-01 10:27 | -16.90797 | -39.86456 | 37154 ft | 459 kts | 28° |
| 2026-05-01 10:28 | -16.82296 | -39.81815 | 37154 ft | 459 kts | 28° |
| 2026-05-01 10:28 | -16.73829 | -39.77206 | 37149 ft | 458 kts | 28° |
| 2026-05-01 10:29 | -16.65368 | -39.72601 | 37144 ft | 458 kts | 28° |
| 2026-05-01 10:30 | -16.54034 | -39.66433 | 37139 ft | 459 kts | 28° |
| 2026-05-01 10:31 | -16.42735 | -39.60299 | 37139 ft | 459 kts | 28° |
| 2026-05-01 10:32 | -16.34228 | -39.55685 | 37136 ft | 459 kts | 28° |
| 2026-05-01 10:33 | -16.22914 | -39.49560 | 37135 ft | 459 kts | 28° |
| 2026-05-01 10:34 | -16.14395 | -39.44949 | 37132 ft | 460 kts | 28° |
| 2026-05-01 10:34 | -16.08748 | -39.41890 | 37146 ft | 460 kts | 28° |
| 2026-05-01 10:35 | -16.00220 | -39.37283 | 37142 ft | 460 kts | 28° |
| 2026-05-01 10:35 | -15.94562 | -39.34236 | 37138 ft | 459 kts | 28° |
| 2026-05-01 10:36 | -15.86047 | -39.29642 | 37133 ft | 459 kts | 28° |
| 2026-05-01 10:37 | -15.80375 | -39.26579 | 37133 ft | 459 kts | 29° |
| 2026-05-01 10:37 | -15.71866 | -39.21992 | 37135 ft | 459 kts | 29° |
| 2026-05-01 10:38 | -15.66221 | -39.18954 | 37126 ft | 459 kts | 29° |
| 2026-05-01 10:38 | -15.60546 | -39.15903 | 37123 ft | 459 kts | 29° |
| 2026-05-01 10:39 | -15.54877 | -39.12848 | 37129 ft | 459 kts | 29° |
| 2026-05-01 10:39 | -15.49228 | -39.09817 | 37131 ft | 459 kts | 29° |
| 2026-05-01 10:40 | -15.43541 | -39.06772 | 37124 ft | 458 kts | 29° |
| 2026-05-01 10:40 | -15.37913 | -39.03758 | 37120 ft | 458 kts | 29° |
| 2026-05-01 10:41 | -15.32254 | -39.00718 | 37118 ft | 458 kts | 29° |
| 2026-05-01 10:42 | -15.23753 | -38.96163 | 37116 ft | 458 kts | 29° |
| 2026-05-01 10:42 | -15.18079 | -38.93126 | 37113 ft | 458 kts | 29° |
| 2026-05-01 10:43 | -15.12441 | -38.90106 | 37113 ft | 458 kts | 29° |
| 2026-05-01 10:43 | -15.06768 | -38.87075 | 37114 ft | 458 kts | 29° |
| 2026-05-01 10:44 | -15.01128 | -38.84063 | 37105 ft | 458 kts | 29° |
| 2026-05-01 10:44 | -14.95464 | -38.81040 | 37105 ft | 458 kts | 30° |
| 2026-05-01 10:45 | -14.89799 | -38.78008 | 37101 ft | 458 kts | 30° |
| 2026-05-01 10:45 | -14.84126 | -38.74983 | 37102 ft | 458 kts | 29° |
| 2026-05-01 10:46 | -14.78457 | -38.71970 | 37098 ft | 458 kts | 29° |
| 2026-05-01 10:46 | -14.72826 | -38.68971 | 37101 ft | 458 kts | 30° |
| 2026-05-01 10:47 | -14.67159 | -38.65952 | 37077 ft | 458 kts | 29° |
| 2026-05-01 10:47 | -14.61475 | -38.62936 | 37075 ft | 459 kts | 30° |
| 2026-05-01 10:48 | -14.55791 | -38.59912 | 37081 ft | 459 kts | 30° |
| 2026-05-01 10:48 | -14.50109 | -38.56886 | 37083 ft | 460 kts | 30° |
| 2026-05-01 10:49 | -14.44419 | -38.53862 | 37079 ft | 460 kts | 30° |
| 2026-05-01 10:49 | -14.38765 | -38.50861 | 37076 ft | 460 kts | 30° |
| 2026-05-01 10:50 | -14.33067 | -38.47842 | 37084 ft | 460 kts | 30° |
| 2026-05-01 10:50 | -14.27368 | -38.44819 | 37088 ft | 461 kts | 30° |
| 2026-05-01 10:51 | -14.21664 | -38.41792 | 37091 ft | 461 kts | 30° |
| 2026-05-01 10:51 | -14.15955 | -38.38771 | 37094 ft | 461 kts | 30° |
| 2026-05-01 10:52 | -14.10250 | -38.35756 | 37088 ft | 461 kts | 30° |
| 2026-05-01 10:52 | -14.04547 | -38.32746 | 37094 ft | 461 kts | 30° |
| 2026-05-01 10:53 | -13.98841 | -38.29736 | 37087 ft | 461 kts | 30° |
| 2026-05-01 10:53 | -13.93136 | -38.26721 | 37089 ft | 460 kts | 30° |
| 2026-05-01 10:54 | -13.87442 | -38.23707 | 37084 ft | 460 kts | 30° |
| 2026-05-01 10:54 | -13.81742 | -38.20693 | 37091 ft | 460 kts | 30° |
| 2026-05-01 10:55 | -13.76081 | -38.17703 | 37086 ft | 460 kts | 30° |
| 2026-05-01 10:55 | -13.70387 | -38.14702 | 37082 ft | 460 kts | 30° |
| 2026-05-01 10:56 | -13.64688 | -38.11705 | 37079 ft | 460 kts | 30° |
| 2026-05-01 10:56 | -13.58996 | -38.08704 | 37075 ft | 460 kts | 30° |
| 2026-05-01 10:57 | -13.53304 | -38.05707 | 37075 ft | 460 kts | 30° |
| 2026-05-01 10:57 | -13.47606 | -38.02712 | 37072 ft | 459 kts | 30° |
| 2026-05-01 10:58 | -13.41910 | -37.99719 | 37068 ft | 459 kts | 30° |
| 2026-05-01 10:58 | -13.36218 | -37.96726 | 37067 ft | 460 kts | 30° |
| 2026-05-01 10:59 | -13.30525 | -37.93739 | 37072 ft | 459 kts | 30° |
| 2026-05-01 10:59 | -13.24857 | -37.90765 | 37072 ft | 459 kts | 30° |
| 2026-05-01 11:00 | -13.19162 | -37.87771 | 37067 ft | 459 kts | 30° |
| 2026-05-01 11:00 | -13.13465 | -37.84779 | 37066 ft | 460 kts | 30° |
| 2026-05-01 11:01 | -13.07759 | -37.81794 | 37068 ft | 460 kts | 29° |
| 2026-05-01 11:01 | -13.02057 | -37.78810 | 37071 ft | 460 kts | 29° |
| 2026-05-01 11:02 | -12.96389 | -37.75838 | 37070 ft | 460 kts | 29° |
| 2026-05-01 11:02 | -12.90678 | -37.72850 | 37071 ft | 460 kts | 29° |
| 2026-05-01 11:03 | -12.84965 | -37.69867 | 37077 ft | 460 kts | 29° |
| 2026-05-01 11:03 | -12.79289 | -37.66900 | 37076 ft | 460 kts | 29° |
| 2026-05-01 11:04 | -12.73580 | -37.63912 | 37079 ft | 461 kts | 29° |
| 2026-05-01 11:04 | -12.67863 | -37.60924 | 37082 ft | 461 kts | 29° |
| 2026-05-01 11:05 | -12.62136 | -37.57941 | 37076 ft | 461 kts | 29° |
| 2026-05-01 11:05 | -12.56421 | -37.54963 | 37077 ft | 461 kts | 29° |
| 2026-05-01 11:06 | -12.50741 | -37.52000 | 37076 ft | 461 kts | 29° |
| 2026-05-01 11:06 | -12.45027 | -37.49015 | 37071 ft | 461 kts | 29° |
| 2026-05-01 11:07 | -12.36451 | -37.44547 | 37076 ft | 460 kts | 28° |
| 2026-05-01 11:07 | -12.30767 | -37.41590 | 37075 ft | 460 kts | 28° |
| 2026-05-01 11:08 | -12.25042 | -37.38609 | 37077 ft | 460 kts | 28° |
| 2026-05-01 11:09 | -12.16512 | -37.34177 | 37075 ft | 460 kts | 28° |
| 2026-05-01 11:09 | -12.10804 | -37.31208 | 37072 ft | 460 kts | 28° |
| 2026-05-01 11:10 | -12.02231 | -37.26759 | 37070 ft | 460 kts | 28° |
| 2026-05-01 11:10 | -11.96552 | -37.23816 | 37072 ft | 460 kts | 28° |
| 2026-05-01 11:11 | -11.90834 | -37.20852 | 37074 ft | 460 kts | 28° |
| 2026-05-01 11:11 | -11.86084 | -37.18386 | 37075 ft | 460 kts | 28° |
| 2026-05-01 11:12 | -11.79451 | -37.14940 | 37074 ft | 459 kts | 28° |
| 2026-05-01 11:12 | -11.73737 | -37.11981 | 37070 ft | 459 kts | 28° |
| 2026-05-01 11:13 | -11.68994 | -37.09528 | 37068 ft | 460 kts | 27° |
| 2026-05-01 11:13 | -11.63277 | -37.06572 | 37066 ft | 460 kts | 27° |
| 2026-05-01 11:14 | -11.57560 | -37.03611 | 37066 ft | 460 kts | 27° |
| 2026-05-01 11:14 | -11.51881 | -37.00677 | 37067 ft | 460 kts | 28° |
| 2026-05-01 11:15 | -11.46164 | -36.97725 | 37070 ft | 461 kts | 27° |
| 2026-05-01 11:15 | -11.40439 | -36.94764 | 37067 ft | 461 kts | 27° |
| 2026-05-01 11:16 | -11.34719 | -36.91810 | 37065 ft | 460 kts | 27° |
| 2026-05-01 11:16 | -11.28991 | -36.88867 | 37065 ft | 460 kts | 27° |
| 2026-05-01 11:17 | -11.23299 | -36.85941 | 37059 ft | 461 kts | 27° |
| 2026-05-01 11:17 | -11.17575 | -36.82989 | 37059 ft | 461 kts | 27° |
| 2026-05-01 11:18 | -11.11858 | -36.80046 | 37061 ft | 460 kts | 26° |
| 2026-05-01 11:18 | -11.06148 | -36.77109 | 37061 ft | 460 kts | 26° |
| 2026-05-01 11:19 | -11.00429 | -36.74173 | 37059 ft | 459 kts | 26° |
| 2026-05-01 11:19 | -10.94747 | -36.71256 | 37069 ft | 458 kts | 26° |
| 2026-05-01 11:20 | -10.89064 | -36.68326 | 37069 ft | 458 kts | 25° |
| 2026-05-01 11:20 | -10.83375 | -36.65399 | 37075 ft | 457 kts | 25° |
| 2026-05-01 11:21 | -10.77694 | -36.62510 | 37073 ft | 456 kts | 25° |
| 2026-05-01 11:21 | -10.72037 | -36.59679 | 37070 ft | 455 kts | 25° |
| 2026-05-01 11:22 | -10.66351 | -36.56825 | 37077 ft | 455 kts | 25° |
| 2026-05-01 11:22 | -10.60677 | -36.53969 | 37070 ft | 455 kts | 25° |
| 2026-05-01 11:23 | -10.55002 | -36.51111 | 37079 ft | 454 kts | 25° |
| 2026-05-01 11:23 | -10.49345 | -36.48270 | 37072 ft | 453 kts | 25° |
| 2026-05-01 11:24 | -10.43727 | -36.45448 | 37075 ft | 453 kts | 25° |
| 2026-05-01 11:25 | -10.35256 | -36.41188 | 37069 ft | 452 kts | 25° |
| 2026-05-01 11:25 | -10.26825 | -36.36948 | 37077 ft | 451 kts | 25° |
| 2026-05-01 11:26 | -10.18373 | -36.32705 | 37079 ft | 450 kts | 24° |
| 2026-05-01 11:27 | -10.12777 | -36.29903 | 37076 ft | 450 kts | 24° |
| 2026-05-01 11:27 | -10.07152 | -36.27082 | 37072 ft | 450 kts | 24° |
| 2026-05-01 11:28 | -10.01533 | -36.24262 | 37083 ft | 449 kts | 24° |
| 2026-05-01 11:28 | -9.95936 | -36.21460 | 37086 ft | 447 kts | 24° |
| 2026-05-01 11:29 | -9.87604 | -36.17288 | 37089 ft | 446 kts | 24° |
| 2026-05-01 11:30 | -9.79262 | -36.13116 | 37084 ft | 445 kts | 24° |
| 2026-05-01 11:30 | -9.73708 | -36.10338 | 37084 ft | 444 kts | 24° |
| 2026-05-01 11:31 | -9.68160 | -36.07563 | 37083 ft | 444 kts | 24° |
| 2026-05-01 11:31 | -9.62654 | -36.04810 | 37077 ft | 443 kts | 24° |
| 2026-05-01 11:32 | -9.57118 | -36.02043 | 37070 ft | 443 kts | 24° |
| 2026-05-01 11:32 | -9.51571 | -35.99274 | 37077 ft | 442 kts | 24° |
| 2026-05-01 11:33 | -9.46091 | -35.96540 | 37065 ft | 441 kts | 24° |
| 2026-05-01 11:33 | -9.40581 | -35.93789 | 37067 ft | 440 kts | 24° |
| 2026-05-01 11:34 | -9.35081 | -35.91040 | 37059 ft | 440 kts | 24° |
| 2026-05-01 11:34 | -9.32337 | -35.89670 | 36833 ft | 441 kts | 24° |
| 2026-05-01 11:34 | -9.29552 | -35.88281 | 35641 ft | 452 kts | 24° |
| 2026-05-01 11:34 | -9.26746 | -35.86880 | 34786 ft | 456 kts | 25° |
| 2026-05-01 11:35 | -9.23919 | -35.85470 | 34290 ft | 450 kts | 25° |
| 2026-05-01 11:35 | -9.21122 | -35.84076 | 33684 ft | 446 kts | 25° |
| 2026-05-01 11:35 | -9.18346 | -35.82695 | 33133 ft | 441 kts | 26° |
| 2026-05-01 11:35 | -9.15599 | -35.81328 | 32566 ft | 438 kts | 26° |
| 2026-05-01 11:36 | -9.12874 | -35.79970 | 32011 ft | 434 kts | 26° |
| 2026-05-01 11:36 | -9.10167 | -35.78620 | 31471 ft | 432 kts | 26° |
| 2026-05-01 11:36 | -9.07479 | -35.77281 | 30933 ft | 429 kts | 26° |
| 2026-05-01 11:36 | -9.04801 | -35.75949 | 30394 ft | 428 kts | 26° |
| 2026-05-01 11:37 | -9.02197 | -35.74499 | 29800 ft | 426 kts | 35° |
| 2026-05-01 11:37 | -8.99936 | -35.72643 | 29264 ft | 421 kts | 44° |
| 2026-05-01 11:37 | -8.97820 | -35.70615 | 28745 ft | 418 kts | 44° |
| 2026-05-01 11:37 | -8.95713 | -35.68602 | 28232 ft | 414 kts | 44° |
| 2026-05-01 11:38 | -8.93626 | -35.66615 | 27742 ft | 410 kts | 45° |
| 2026-05-01 11:38 | -8.91557 | -35.64648 | 27246 ft | 407 kts | 44° |
| 2026-05-01 11:38 | -8.89495 | -35.62686 | 26774 ft | 404 kts | 45° |
| 2026-05-01 11:38 | -8.87454 | -35.60747 | 26302 ft | 400 kts | 45° |
| 2026-05-01 11:39 | -8.85429 | -35.58822 | 25828 ft | 397 kts | 45° |
| 2026-05-01 11:39 | -8.83446 | -35.56933 | 25352 ft | 395 kts | 45° |
| 2026-05-01 11:39 | -8.81447 | -35.55023 | 24853 ft | 393 kts | 45° |
| 2026-05-01 11:39 | -8.79458 | -35.53123 | 24359 ft | 391 kts | 45° |
| 2026-05-01 11:40 | -8.77480 | -35.51236 | 23855 ft | 390 kts | 46° |
| 2026-05-01 11:40 | -8.75507 | -35.49357 | 23288 ft | 389 kts | 46° |
| 2026-05-01 11:40 | -8.73541 | -35.47484 | 22764 ft | 386 kts | 46° |
| 2026-05-01 11:40 | -8.71617 | -35.45654 | 22260 ft | 383 kts | 46° |
| 2026-05-01 11:41 | -8.69679 | -35.43812 | 21755 ft | 380 kts | 46° |
| 2026-05-01 11:41 | -8.67759 | -35.41987 | 21262 ft | 378 kts | 46° |
| 2026-05-01 11:41 | -8.65851 | -35.40174 | 20840 ft | 373 kts | 46° |
| 2026-05-01 11:41 | -8.63959 | -35.38376 | 20333 ft | 372 kts | 46° |
| 2026-05-01 11:42 | -8.62081 | -35.36592 | 19844 ft | 370 kts | 46° |
| 2026-05-01 11:42 | -8.60218 | -35.34825 | 19444 ft | 366 kts | 46° |
| 2026-05-01 11:42 | -8.58363 | -35.33065 | 19011 ft | 363 kts | 46° |
| 2026-05-01 11:42 | -8.56530 | -35.31329 | 18615 ft | 359 kts | 46° |
| 2026-05-01 11:43 | -8.54713 | -35.29605 | 18155 ft | 357 kts | 46° |
| 2026-05-01 11:43 | -8.52930 | -35.27914 | 17682 ft | 355 kts | 46° |
| 2026-05-01 11:43 | -8.51138 | -35.26214 | 17156 ft | 351 kts | 46° |
| 2026-05-01 11:44 | -8.47647 | -35.22910 | 16115 ft | 334 kts | 46° |
| 2026-05-01 11:44 | -8.45955 | -35.21309 | 15697 ft | 332 kts | 46° |
| 2026-05-01 11:44 | -8.44273 | -35.19716 | 15280 ft | 329 kts | 46° |
| 2026-05-01 11:44 | -8.42627 | -35.18154 | 14875 ft | 327 kts | 46° |
| 2026-05-01 11:45 | -8.40971 | -35.16585 | 14471 ft | 325 kts | 46° |
| 2026-05-01 11:45 | -8.39326 | -35.15027 | 14058 ft | 323 kts | 46° |
| 2026-05-01 11:45 | -8.37691 | -35.13477 | 13598 ft | 322 kts | 46° |
| 2026-05-01 11:45 | -8.36063 | -35.11934 | 13176 ft | 318 kts | 46° |
| 2026-05-01 11:46 | -8.34456 | -35.10416 | 12765 ft | 315 kts | 45° |
| 2026-05-01 11:46 | -8.32867 | -35.08918 | 12359 ft | 311 kts | 45° |
| 2026-05-01 11:46 | -8.31290 | -35.07432 | 11950 ft | 308 kts | 46° |
| 2026-05-01 11:46 | -8.29729 | -35.05959 | 11539 ft | 306 kts | 45° |
| 2026-05-01 11:47 | -8.28029 | -35.04678 | 11134 ft | 306 kts | 32° |
| 2026-05-01 11:47 | -8.26055 | -35.03851 | 10707 ft | 309 kts | 18° |
| 2026-05-01 11:47 | -8.23997 | -35.03360 | 10308 ft | 306 kts | 17° |
| 2026-05-01 11:47 | -8.21978 | -35.02889 | 10177 ft | 287 kts | 17° |
| 2026-05-01 11:48 | -8.20098 | -35.02453 | 10062 ft | 268 kts | 17° |
| 2026-05-01 11:48 | -8.18311 | -35.02087 | 9846 ft | 258 kts | 11° |
| 2026-05-01 11:48 | -8.16521 | -35.02083 | 9476 ft | 258 kts | 357° |
| 2026-05-01 11:48 | -8.14763 | -35.02491 | 9044 ft | 260 kts | 347° |
| 2026-05-01 11:49 | -8.13059 | -35.03033 | 8736 ft | 252 kts | 347° |
| 2026-05-01 11:49 | -8.11402 | -35.03560 | 8367 ft | 246 kts | 347° |
| 2026-05-01 11:49 | -8.09806 | -35.04064 | 7930 ft | 242 kts | 347° |
| 2026-05-01 11:49 | -8.08202 | -35.04567 | 7448 ft | 241 kts | 347° |
| 2026-05-01 11:50 | -8.06605 | -35.05067 | 6975 ft | 239 kts | 347° |
| 2026-05-01 11:50 | -8.05021 | -35.05561 | 6570 ft | 235 kts | 347° |
| 2026-05-01 11:50 | -8.03493 | -35.06039 | 6224 ft | 227 kts | 347° |
| 2026-05-01 11:50 | -8.01982 | -35.06508 | 5874 ft | 224 kts | 347° |
| 2026-05-01 11:51 | -8.00480 | -35.06728 | 5470 ft | 218 kts | 12° |
| 2026-05-01 11:51 | -7.99058 | -35.06253 | 4994 ft | 215 kts | 37° |
| 2026-05-01 11:51 | -7.98007 | -35.05256 | 4564 ft | 205 kts | 60° |
| 2026-05-01 11:51 | -7.97448 | -35.03987 | 4055 ft | 197 kts | 76° |
| 2026-05-01 11:52 | -7.97036 | -35.02720 | 3794 ft | 181 kts | 76° |
| 2026-05-01 11:52 | -7.96656 | -35.01574 | 3656 ft | 164 kts | 76° |
| 2026-05-01 11:52 | -7.96304 | -35.00496 | 3569 ft | 160 kts | 78° |
| 2026-05-01 11:52 | -7.96219 | -34.99420 | 3468 ft | 149 kts | 99° |
| 2026-05-01 11:53 | -7.96525 | -34.98411 | 3136 ft | 155 kts | 117° |
| 2026-05-01 11:53 | -7.97222 | -34.97574 | 2886 ft | 157 kts | 140° |
| 2026-05-01 11:53 | -7.98200 | -34.97081 | 2667 ft | 158 kts | 159° |
| 2026-05-01 11:53 | -7.99234 | -34.96741 | 2464 ft | 155 kts | 158° |
| 2026-05-01 11:54 | -8.00249 | -34.96405 | 2258 ft | 151 kts | 159° |
| 2026-05-01 11:54 | -8.01225 | -34.96082 | 2059 ft | 147 kts | 161° |
| 2026-05-01 11:54 | -8.02196 | -34.95763 | 1876 ft | 146 kts | 160° |
| 2026-05-01 11:54 | -8.03151 | -34.95447 | 1680 ft | 141 kts | 160° |
| 2026-05-01 11:55 | -8.04066 | -34.95146 | 1505 ft | 136 kts | 159° |
| 2026-05-01 11:55 | -8.04958 | -34.94852 | 1337 ft | 133 kts | 160° |
| 2026-05-01 11:55 | -8.05835 | -34.94563 | 1194 ft | 132 kts | 160° |
| 2026-05-01 11:55 | -8.06706 | -34.94275 | 998 ft | 132 kts | 159° |
| 2026-05-01 11:56 | -8.07575 | -34.93989 | 838 ft | 131 kts | 159° |
| 2026-05-01 11:56 | -8.08448 | -34.93701 | 692 ft | 131 kts | 162° |
| 2026-05-01 11:56 | -8.09302 | -34.93420 | 524 ft | 132 kts | 158° |
| 2026-05-01 11:56 | -8.10186 | -34.93128 | 367 ft | 134 kts | 159° |
| 2026-05-01 11:57 | -8.11079 | -34.92835 | 153 ft | 136 kts | 161° |
| 2026-05-01 11:57 | -8.11676 | -34.92636 | 62 ft | 135 kts | 162° |
| 2026-05-01 11:57 | -8.12422 | -34.92392 | 46 ft | 79 kts | 161° |
| 2026-05-01 11:57 | -8.12934 | -34.92216 | 46 ft | 56 kts | 162° |
| 2026-05-01 11:58 | -8.13217 | -34.92110 | 44 ft | 32 kts | 136° |
| 2026-05-01 11:58 | -8.13293 | -34.91990 | 43 ft | 10 kts | 89° |
| 2026-05-01 11:58 | -8.13218 | -34.91973 | 44 ft | 9 kts | 340° |
| 2026-05-01 11:59 | -8.13137 | -34.92001 | 44 ft | 15 kts | 341° |
| 2026-05-01 11:59 | -8.13077 | -34.92021 | 46 ft | 11 kts | 342° |
| 2026-05-01 11:59 | -8.13034 | -34.92030 | 48 ft | 5 kts | 12° |
| 2026-05-01 12:00 | -8.13010 | -34.91977 | 46 ft | 0 kts | 73° |
| 2026-05-01 12:00 | -8.13007 | -34.91967 | 46 ft | 3 kts | 73° |
| 2026-05-01 12:00 | -8.13004 | -34.91958 | 46 ft | 3 kts | 72° |
| 2026-05-01 12:01 | -8.13006 | -34.91963 | 46 ft | 0 kts | 72° |